Time,TemperatureF,DewpointF,PressureIn,WindDirection,WindDirectionDegrees,WindSpeedMPH,WindSpeedGustMPH,Humidity,HourlyPrecipIn,Conditions,Clouds,dailyrainin,SoftwareType,DateUTC
2013-08-02 00:01:00,73.4,73.1,30.00,NE,36,0.0,0.0,99,0.00,,,0.00,WUHU216DAVISVP2,2013-08-02 04:01:00,
2013-08-02 00:02:00,73.4,73.1,30.00,NE,36,0.0,0.0,99,0.00,,,0.00,WUHU216DAVISVP2,2013-08-02 04:02:00,
2013-08-02 00:07:00,73.5,73.2,30.01,NE,36,0.0,0.0,99,0.00,,,0.00,WUHU216DAVISVP2,2013-08-02 04:07:00,
2013-08-02 00:12:00,73.4,73.1,30.01,NE,36,0.0,0.0,99,0.00,,,0.00,WUHU216DAVISVP2,2013-08-02 04:12:00,
2013-08-02 00:16:00,73.4,73.1,30.01,NE,36,0.0,0.0,99,0.00,,,0.00,WUHU216DAVISVP2,2013-08-02 04:16:00,
2013-08-02 00:21:00,73.3,73.0,30.01,NE,36,0.0,0.0,99,0.00,,,0.00,WUHU216DAVISVP2,2013-08-02 04:21:00,
2013-08-02 00:26:00,73.3,73.0,30.01,NE,36,0.0,0.0,99,0.00,,,0.00,WUHU216DAVISVP2,2013-08-02 04:26:00,
2013-08-02 00:31:00,73.2,72.9,30.01,NE,36,0.0,0.0,99,0.00,,,0.00,WUHU216DAVISVP2,2013-08-02 04:31:00,
2013-08-02 00:36:00,73.2,72.9,30.01,NE,36,0.0,0.0,99,0.00,,,0.00,WUHU216DAVISVP2,2013-08-02 04:36:00,
2013-08-02 00:41:00,73.2,72.9,30.01,NE,36,0.0,0.0,99,0.00,,,0.00,WUHU216DAVISVP2,2013-08-02 04:41:00,
2013-08-02 00:46:00,73.2,72.9,30.00,NE,36,0.0,0.0,99,0.00,,,0.00,WUHU216DAVISVP2,2013-08-02 04:46:00,
2013-08-02 00:51:00,73.3,73.3,30.00,NE,36,0.0,0.0,100,0.00,,,0.00,WUHU216DAVISVP2,2013-08-02 04:51:00,
2013-08-02 00:56:00,73.2,73.2,30.00,NE,36,0.0,0.0,100,0.00,,,0.00,WUHU216DAVISVP2,2013-08-02 04:56:00,
2013-08-02 01:01:00,73.2,73.2,30.00,NE,36,0.0,0.0,100,0.00,,,0.00,WUHU216DAVISVP2,2013-08-02 05:01:00,
2013-08-02 01:06:00,73.2,73.2,30.00,NE,36,0.0,0.0,100,0.00,,,0.00,WUHU216DAVISVP2,2013-08-02 05:06:00,
2013-08-02 01:11:00,73.2,73.2,29.99,NE,36,0.0,0.0,100,0.00,,,0.00,WUHU216DAVISVP2,2013-08-02 05:11:00,
2013-08-02 01:16:00,73.1,72.8,30.00,NE,36,0.0,0.0,99,0.00,,,0.00,WUHU216DAVISVP2,2013-08-02 05:16:00,
2013-08-02 01:21:00,73.1,72.8,29.99,NE,36,0.0,0.0,99,0.00,,,0.00,WUHU216DAVISVP2,2013-08-02 05:21:00,
2013-08-02 01:26:00,73.0,72.7,29.99,NE,36,0.0,0.0,99,0.00,,,0.00,WUHU216DAVISVP2,2013-08-02 05:26:00,
2013-08-02 01:31:00,72.9,72.6,29.99,NE,36,0.0,0.0,99,0.00,,,0.00,WUHU216DAVISVP2,2013-08-02 05:31:00,
2013-08-02 01:36:00,73.0,72.7,29.99,NE,36,0.0,0.0,99,0.00,,,0.00,WUHU216DAVISVP2,2013-08-02 05:36:00,
2013-08-02 01:41:00,72.9,72.6,29.99,NE,36,0.0,0.0,99,0.00,,,0.00,WUHU216DAVISVP2,2013-08-02 05:41:00,
2013-08-02 01:46:00,72.9,72.6,29.98,NE,36,0.0,0.0,99,0.00,,,0.00,WUHU216DAVISVP2,2013-08-02 05:46:00,
2013-08-02 01:51:00,72.8,72.5,29.98,NE,36,0.0,0.0,99,0.00,,,0.00,WUHU216DAVISVP2,2013-08-02 05:51:00,
2013-08-02 01:56:00,72.7,72.4,29.98,NE,36,0.0,0.0,99,0.00,,,0.00,WUHU216DAVISVP2,2013-08-02 05:56:00,
2013-08-02 02:01:00,72.7,72.4,29.98,NE,36,0.0,0.0,99,0.00,,,0.00,WUHU216DAVISVP2,2013-08-02 06:01:00,
2013-08-02 02:07:00,72.6,72.3,29.97,NE,36,0.0,0.0,99,0.00,,,0.00,WUHU216DAVISVP2,2013-08-02 06:07:00,
2013-08-02 02:12:00,72.6,72.3,29.97,NE,36,0.0,0.0,99,0.00,,,0.00,WUHU216DAVISVP2,2013-08-02 06:12:00,
2013-08-02 02:17:00,72.6,72.6,29.97,NE,36,0.0,0.0,100,0.00,,,0.00,WUHU216DAVISVP2,2013-08-02 06:17:00,
2013-08-02 02:22:00,72.7,72.7,29.97,NE,36,0.0,0.0,100,0.00,,,0.00,WUHU216DAVISVP2,2013-08-02 06:22:00,
2013-08-02 02:27:00,72.7,72.7,29.97,NE,36,0.0,0.0,100,0.00,,,0.00,WUHU216DAVISVP2,2013-08-02 06:27:00,
2013-08-02 02:32:00,72.8,72.8,29.97,NE,36,0.0,0.0,100,0.00,,,0.00,WUHU216DAVISVP2,2013-08-02 06:32:00,
2013-08-02 02:37:00,72.8,72.8,29.96,NE,36,0.0,0.0,100,0.00,,,0.00,WUHU216DAVISVP2,2013-08-02 06:37:00,
2013-08-02 02:42:00,72.8,72.8,29.96,NE,36,0.0,0.0,100,0.00,,,0.00,WUHU216DAVISVP2,2013-08-02 06:42:00,
2013-08-02 02:47:00,72.9,72.9,29.96,NE,36,0.0,0.0,100,0.00,,,0.00,WUHU216DAVISVP2,2013-08-02 06:47:00,
2013-08-02 02:52:00,72.9,72.9,29.96,NE,36,0.0,0.0,100,0.00,,,0.00,WUHU216DAVISVP2,2013-08-02 06:52:00,
2013-08-02 02:57:00,72.9,72.9,29.95,NE,36,0.0,0.0,100,0.00,,,0.00,WUHU216DAVISVP2,2013-08-02 06:57:00,
2013-08-02 03:02:00,72.9,72.9,29.95,NE,36,0.0,0.0,100,0.00,,,0.00,WUHU216DAVISVP2,2013-08-02 07:02:00,
2013-08-02 03:07:00,72.9,72.6,29.95,NE,36,0.0,0.0,99,0.00,,,0.00,WUHU216DAVISVP2,2013-08-02 07:07:00,
2013-08-02 03:12:00,72.9,72.6,29.95,NE,36,0.0,0.0,99,0.00,,,0.00,WUHU216DAVISVP2,2013-08-02 07:12:00,
2013-08-02 03:17:00,72.8,72.5,29.95,NE,36,0.0,0.0,99,0.00,,,0.00,WUHU216DAVISVP2,2013-08-02 07:17:00,
2013-08-02 03:22:00,72.8,72.5,29.95,NE,36,0.0,0.0,99,0.00,,,0.00,WUHU216DAVISVP2,2013-08-02 07:22:00,
2013-08-02 03:27:00,72.8,72.5,29.95,NE,36,0.0,0.0,99,0.00,,,0.00,WUHU216DAVISVP2,2013-08-02 07:27:00,
2013-08-02 03:32:00,72.8,72.5,29.95,NE,36,0.0,0.0,99,0.00,,,0.00,WUHU216DAVISVP2,2013-08-02 07:32:00,
2013-08-02 03:37:00,72.8,72.8,29.95,NE,36,0.0,0.0,100,0.00,,,0.00,WUHU216DAVISVP2,2013-08-02 07:37:00,
2013-08-02 03:42:00,72.8,72.8,29.95,NE,36,0.0,0.0,100,0.00,,,0.00,WUHU216DAVISVP2,2013-08-02 07:42:00,
2013-08-02 03:47:00,72.8,72.8,29.95,NE,36,0.0,0.0,100,0.00,,,0.00,WUHU216DAVISVP2,2013-08-02 07:47:00,
2013-08-02 03:52:00,72.8,72.8,29.94,NE,36,0.0,0.0,100,0.00,,,0.00,WUHU216DAVISVP2,2013-08-02 07:52:00,
2013-08-02 03:57:00,72.8,72.8,29.94,NE,36,0.0,0.0,100,0.00,,,0.00,WUHU216DAVISVP2,2013-08-02 07:57:00,
2013-08-02 04:02:00,72.8,72.8,29.94,NE,36,0.0,0.0,100,0.00,,,0.00,WUHU216DAVISVP2,2013-08-02 08:02:00,
2013-08-02 04:07:00,72.8,72.8,29.94,NE,36,0.0,0.0,100,0.00,,,0.00,WUHU216DAVISVP2,2013-08-02 08:07:00,
2013-08-02 04:12:00,72.8,72.8,29.94,NE,36,0.0,0.0,100,0.00,,,0.00,WUHU216DAVISVP2,2013-08-02 08:12:00,
2013-08-02 04:17:00,72.8,72.8,29.95,NE,36,0.0,0.0,100,0.00,,,0.00,WUHU216DAVISVP2,2013-08-02 08:17:00,
2013-08-02 04:22:00,72.7,72.7,29.95,NE,36,0.0,0.0,100,0.00,,,0.00,WUHU216DAVISVP2,2013-08-02 08:22:00,
2013-08-02 04:27:00,72.7,72.7,29.95,NE,36,0.0,0.0,100,0.00,,,0.00,WUHU216DAVISVP2,2013-08-02 08:27:00,
2013-08-02 04:32:00,72.7,72.7,29.95,NE,36,0.0,0.0,100,0.00,,,0.00,WUHU216DAVISVP2,2013-08-02 08:32:00,
2013-08-02 04:37:00,72.6,72.6,29.96,NE,36,0.0,0.0,100,0.00,,,0.00,WUHU216DAVISVP2,2013-08-02 08:37:00,
2013-08-02 04:42:00,72.7,72.7,29.96,NE,36,0.0,0.0,100,0.00,,,0.00,WUHU216DAVISVP2,2013-08-02 08:42:00,
2013-08-02 04:47:00,72.7,72.7,29.96,NE,36,0.0,0.0,100,0.00,,,0.00,WUHU216DAVISVP2,2013-08-02 08:47:00,
2013-08-02 04:52:00,72.8,72.8,29.96,NE,36,0.0,0.0,100,0.00,,,0.00,WUHU216DAVISVP2,2013-08-02 08:52:00,
2013-08-02 04:57:00,72.8,72.8,29.96,NE,36,0.0,0.0,100,0.00,,,0.00,WUHU216DAVISVP2,2013-08-02 08:57:00,
2013-08-02 05:02:00,72.7,72.7,29.96,NE,36,0.0,0.0,100,0.00,,,0.00,WUHU216DAVISVP2,2013-08-02 09:02:00,
2013-08-02 05:07:00,72.7,72.7,29.96,NE,36,0.0,0.0,100,0.00,,,0.00,WUHU216DAVISVP2,2013-08-02 09:07:00,
2013-08-02 05:12:00,72.7,72.7,29.96,NE,36,0.0,0.0,100,0.00,,,0.00,WUHU216DAVISVP2,2013-08-02 09:12:00,
2013-08-02 05:17:00,72.7,72.7,29.97,NE,36,0.0,0.0,100,0.00,,,0.00,WUHU216DAVISVP2,2013-08-02 09:17:00,
2013-08-02 05:22:00,72.7,72.7,29.97,NE,36,0.0,0.0,100,0.00,,,0.00,WUHU216DAVISVP2,2013-08-02 09:22:00,
2013-08-02 05:27:00,72.6,72.6,29.97,NE,36,0.0,0.0,100,0.00,,,0.00,WUHU216DAVISVP2,2013-08-02 09:27:00,
2013-08-02 05:32:00,72.6,72.6,29.97,NE,36,0.0,0.0,100,0.00,,,0.00,WUHU216DAVISVP2,2013-08-02 09:32:00,
2013-08-02 05:37:00,72.6,72.6,29.97,NE,36,0.0,0.0,100,0.00,,,0.00,WUHU216DAVISVP2,2013-08-02 09:37:00,
2013-08-02 05:42:00,72.7,72.7,29.98,NE,36,0.0,0.0,100,0.00,,,0.00,WUHU216DAVISVP2,2013-08-02 09:42:00,
2013-08-02 05:47:00,72.6,72.6,29.97,NE,36,0.0,0.0,100,0.00,,,0.00,WUHU216DAVISVP2,2013-08-02 09:47:00,
2013-08-02 05:48:00,72.6,72.6,29.97,NE,36,0.0,0.0,100,0.00,,,0.00,WUHU216DAVISVP2,2013-08-02 09:48:00,
2013-08-02 05:54:00,72.6,72.6,29.98,NE,36,0.0,0.0,100,0.00,,,0.00,WUHU216DAVISVP2,2013-08-02 09:54:00,
2013-08-02 06:00:00,72.5,72.5,29.98,NE,36,0.0,0.0,100,0.00,,,0.00,WUHU216DAVISVP2,2013-08-02 10:00:00,
2013-08-02 06:15:00,72.6,72.6,29.98,NE,36,0.0,0.0,100,0.00,,,0.00,WUHU216DAVISVP2,2013-08-02 10:15:00,
2013-08-02 06:20:00,72.6,72.6,29.98,NE,36,0.0,0.0,100,0.00,,,0.00,WUHU216DAVISVP2,2013-08-02 10:20:00,
2013-08-02 06:25:00,72.6,72.6,29.98,NE,36,0.0,0.0,100,0.00,,,0.00,WUHU216DAVISVP2,2013-08-02 10:25:00,
2013-08-02 06:30:00,72.5,72.5,29.98,NE,36,0.0,0.0,100,0.00,,,0.00,WUHU216DAVISVP2,2013-08-02 10:30:00,
2013-08-02 06:35:00,72.5,72.5,29.98,NE,36,0.0,0.0,100,0.00,,,0.00,WUHU216DAVISVP2,2013-08-02 10:35:00,
2013-08-02 06:40:00,72.5,72.5,29.98,NE,36,0.0,0.0,100,0.00,,,0.00,WUHU216DAVISVP2,2013-08-02 10:40:00,
2013-08-02 06:45:00,72.5,72.5,29.98,NE,36,0.0,0.0,100,0.00,,,0.00,WUHU216DAVISVP2,2013-08-02 10:45:00,
2013-08-02 06:50:00,72.6,72.6,29.98,NE,36,0.0,0.0,100,0.00,,,0.00,WUHU216DAVISVP2,2013-08-02 10:50:00,
2013-08-02 06:55:00,72.6,72.6,29.98,NE,36,0.0,0.0,100,0.00,,,0.00,WUHU216DAVISVP2,2013-08-02 10:55:00,
2013-08-02 07:00:00,72.6,72.6,29.98,NE,36,0.0,0.0,100,0.00,,,0.00,WUHU216DAVISVP2,2013-08-02 11:00:00,
2013-08-02 07:05:00,72.6,72.6,29.98,NE,36,0.0,0.0,100,0.00,,,0.00,WUHU216DAVISVP2,2013-08-02 11:05:00,
2013-08-02 07:10:00,72.6,72.6,29.98,NE,36,0.0,0.0,100,0.00,,,0.00,WUHU216DAVISVP2,2013-08-02 11:10:00,
2013-08-02 07:15:00,72.6,72.6,29.98,NE,36,0.0,0.0,100,0.00,,,0.00,WUHU216DAVISVP2,2013-08-02 11:15:00,
2013-08-02 07:21:00,72.6,72.6,29.98,NE,36,0.0,0.0,100,0.00,,,0.00,WUHU216DAVISVP2,2013-08-02 11:21:00,
2013-08-02 07:25:00,72.5,72.5,29.98,NE,36,0.0,0.0,100,0.01,,,0.01,WUHU216DAVISVP2,2013-08-02 11:25:00,
2013-08-02 07:30:00,72.6,72.6,29.99,NE,36,0.0,0.0,100,0.01,,,0.01,WUHU216DAVISVP2,2013-08-02 11:30:00,
2013-08-02 07:35:00,72.8,72.8,29.99,NE,36,0.0,0.0,100,0.01,,,0.01,WUHU216DAVISVP2,2013-08-02 11:35:00,
2013-08-02 07:41:00,73.0,73.0,29.99,NE,36,0.0,0.0,100,0.01,,,0.01,WUHU216DAVISVP2,2013-08-02 11:41:00,
2013-08-02 07:46:00,73.1,73.1,29.99,NE,36,0.0,0.0,100,0.01,,,0.01,WUHU216DAVISVP2,2013-08-02 11:46:00,
2013-08-02 07:51:00,73.3,73.3,29.99,NE,36,0.0,0.0,100,0.01,,,0.01,WUHU216DAVISVP2,2013-08-02 11:51:00,
2013-08-02 07:56:00,73.6,73.6,29.99,NE,36,0.0,0.0,100,0.01,,,0.01,WUHU216DAVISVP2,2013-08-02 11:56:00,
2013-08-02 08:01:00,73.9,73.9,30.00,NE,36,0.0,0.0,100,0.01,,,0.01,WUHU216DAVISVP2,2013-08-02 12:01:00,
2013-08-02 08:06:00,74.1,74.1,30.00,NE,36,0.0,0.0,100,0.01,,,0.01,WUHU216DAVISVP2,2013-08-02 12:06:00,
2013-08-02 08:11:00,74.3,74.3,30.00,NE,36,0.0,0.0,100,0.01,,,0.01,WUHU216DAVISVP2,2013-08-02 12:11:00,
2013-08-02 08:15:00,74.5,74.5,30.00,NE,36,0.0,0.0,100,0.01,,,0.01,WUHU216DAVISVP2,2013-08-02 12:15:00,
2013-08-02 08:21:00,74.7,74.7,30.00,NE,36,0.0,0.0,100,0.01,,,0.01,WUHU216DAVISVP2,2013-08-02 12:21:00,
2013-08-02 08:26:00,74.8,74.8,30.01,NE,36,0.0,0.0,100,0.00,,,0.01,WUHU216DAVISVP2,2013-08-02 12:26:00,
2013-08-02 08:31:00,74.9,74.9,30.01,NE,36,0.0,0.0,100,0.00,,,0.01,WUHU216DAVISVP2,2013-08-02 12:31:00,
2013-08-02 08:36:00,75.1,75.1,30.01,NE,36,0.0,0.0,100,0.00,,,0.01,WUHU216DAVISVP2,2013-08-02 12:36:00,
2013-08-02 08:41:00,75.2,75.2,30.01,NE,38,0.0,0.0,100,0.00,,,0.01,WUHU216DAVISVP2,2013-08-02 12:41:00,
2013-08-02 08:46:00,75.4,75.4,30.01,NE,38,0.0,1.0,100,0.00,,,0.01,WUHU216DAVISVP2,2013-08-02 12:46:00,
2013-08-02 08:51:00,75.5,75.5,30.02,NE,38,0.0,1.0,100,0.00,,,0.01,WUHU216DAVISVP2,2013-08-02 12:51:00,
2013-08-02 08:56:00,75.6,75.6,30.02,NE,38,0.0,0.0,100,0.00,,,0.01,WUHU216DAVISVP2,2013-08-02 12:56:00,
2013-08-02 09:01:00,75.7,75.7,30.02,NE,38,0.0,0.0,100,0.00,,,0.01,WUHU216DAVISVP2,2013-08-02 13:01:00,
2013-08-02 09:06:00,75.8,75.8,30.02,NE,38,0.0,0.0,100,0.00,,,0.01,WUHU216DAVISVP2,2013-08-02 13:06:00,
2013-08-02 09:11:00,75.8,75.8,30.01,NE,38,0.0,0.0,100,0.00,,,0.01,WUHU216DAVISVP2,2013-08-02 13:11:00,
2013-08-02 09:16:00,76.0,76.0,30.02,NE,38,0.0,0.0,100,0.00,,,0.01,WUHU216DAVISVP2,2013-08-02 13:16:00,
2013-08-02 09:21:00,76.2,76.2,30.02,NE,38,0.0,1.0,100,0.00,,,0.01,WUHU216DAVISVP2,2013-08-02 13:21:00,
2013-08-02 09:26:00,76.4,76.4,30.02,NE,38,0.0,1.0,100,0.00,,,0.01,WUHU216DAVISVP2,2013-08-02 13:26:00,
2013-08-02 09:31:00,76.5,76.5,30.02,NE,36,0.0,1.0,100,0.00,,,0.01,WUHU216DAVISVP2,2013-08-02 13:31:00,
2013-08-02 09:36:00,76.6,76.6,30.02,NE,36,0.0,0.0,100,0.00,,,0.01,WUHU216DAVISVP2,2013-08-02 13:36:00,
2013-08-02 09:41:00,76.7,76.7,30.02,NE,36,0.0,1.0,100,0.00,,,0.01,WUHU216DAVISVP2,2013-08-02 13:41:00,
2013-08-02 09:46:00,76.8,76.8,30.02,NE,35,0.0,1.0,100,0.00,,,0.01,WUHU216DAVISVP2,2013-08-02 13:46:00,
2013-08-02 09:51:00,76.7,76.7,30.02,NE,35,0.0,1.0,100,0.00,,,0.01,WUHU216DAVISVP2,2013-08-02 13:51:00,
2013-08-02 09:56:00,76.7,76.7,30.02,NE,35,0.0,1.0,100,0.00,,,0.01,WUHU216DAVISVP2,2013-08-02 13:56:00,
2013-08-02 10:01:00,76.9,76.9,30.03,NE,35,0.0,1.0,100,0.00,,,0.01,WUHU216DAVISVP2,2013-08-02 14:01:00,
2013-08-02 10:06:00,76.9,76.9,30.03,NE,35,0.0,1.0,100,0.00,,,0.01,WUHU216DAVISVP2,2013-08-02 14:06:00,
2013-08-02 10:11:00,77.1,77.1,30.03,NNE,32,0.0,1.0,100,0.00,,,0.01,WUHU216DAVISVP2,2013-08-02 14:11:00,
2013-08-02 10:16:00,77.1,77.1,30.03,SW,220,0.0,3.0,100,0.00,,,0.01,WUHU216DAVISVP2,2013-08-02 14:16:00,
2013-08-02 10:21:00,77.2,76.9,30.03,SW,220,0.0,3.0,99,0.00,,,0.01,WUHU216DAVISVP2,2013-08-02 14:21:00,
2013-08-02 10:26:00,77.4,77.1,30.03,WSW,247,0.0,1.0,99,0.00,,,0.01,WUHU216DAVISVP2,2013-08-02 14:26:00,
2013-08-02 10:31:00,77.6,77.3,30.02,WSW,244,0.0,1.0,99,0.00,,,0.01,WUHU216DAVISVP2,2013-08-02 14:31:00,
2013-08-02 10:36:00,77.9,77.3,30.02,WSW,247,0.0,1.0,98,0.00,,,0.01,WUHU216DAVISVP2,2013-08-02 14:36:00,
2013-08-02 10:41:00,78.0,77.4,30.03,WSW,247,0.0,1.0,98,0.00,,,0.01,WUHU216DAVISVP2,2013-08-02 14:41:00,
2013-08-02 10:46:00,78.3,77.4,30.03,WSW,247,0.0,1.0,97,0.00,,,0.01,WUHU216DAVISVP2,2013-08-02 14:46:00,
2013-08-02 10:51:00,78.5,77.2,30.03,ESE,103,0.0,1.0,96,0.00,,,0.01,WUHU216DAVISVP2,2013-08-02 14:51:00,
2013-08-02 10:56:00,78.8,77.5,30.03,SE,126,0.0,1.0,96,0.00,,,0.01,WUHU216DAVISVP2,2013-08-02 14:56:00,
2013-08-02 11:01:00,79.0,77.1,30.03,SE,125,0.0,1.0,94,0.00,,,0.01,WUHU216DAVISVP2,2013-08-02 15:01:00,
2013-08-02 11:06:00,79.4,77.8,30.03,SE,125,0.0,1.0,95,0.00,,,0.01,WUHU216DAVISVP2,2013-08-02 15:06:00,
2013-08-02 11:11:00,79.9,78.0,30.03,SE,125,0.0,1.0,94,0.00,,,0.01,WUHU216DAVISVP2,2013-08-02 15:11:00,
2013-08-02 11:16:00,80.3,78.1,30.03,SE,126,0.0,1.0,93,0.00,,,0.01,WUHU216DAVISVP2,2013-08-02 15:16:00,
2013-08-02 11:21:00,80.8,77.6,30.04,SE,126,0.0,1.0,90,0.00,,,0.01,WUHU216DAVISVP2,2013-08-02 15:21:00,
2013-08-02 11:26:00,81.3,77.4,30.04,SE,126,0.0,1.0,88,0.00,,,0.01,WUHU216DAVISVP2,2013-08-02 15:26:00,
2013-08-02 11:31:00,81.8,76.9,30.04,South,173,0.0,2.0,85,0.00,,,0.01,WUHU216DAVISVP2,2013-08-02 15:31:00,
2013-08-02 11:36:00,82.5,77.6,30.03,South,173,0.0,2.0,85,0.00,,,0.01,WUHU216DAVISVP2,2013-08-02 15:36:00,
2013-08-02 11:41:00,83.3,77.3,30.03,SE,140,0.0,1.0,82,0.00,,,0.01,WUHU216DAVISVP2,2013-08-02 15:41:00,
2013-08-02 11:46:00,84.1,77.4,30.03,SSE,157,0.0,2.0,80,0.00,,,0.01,WUHU216DAVISVP2,2013-08-02 15:46:00,
2013-08-02 11:51:00,84.8,77.3,30.03,NE,45,0.0,4.0,78,0.00,,,0.01,WUHU216DAVISVP2,2013-08-02 15:51:00,
2013-08-02 11:56:00,85.3,78.9,30.03,North,5,0.0,4.0,81,0.00,,,0.01,WUHU216DAVISVP2,2013-08-02 15:56:00,
2013-08-02 12:01:00,86.0,80.0,30.03,SW,217,0.0,1.0,82,0.00,,,0.01,WUHU216DAVISVP2,2013-08-02 16:01:00,
2013-08-02 12:06:00,86.4,79.6,30.02,East,81,0.0,1.0,80,0.00,,,0.01,WUHU216DAVISVP2,2013-08-02 16:06:00,
2013-08-02 12:11:00,86.5,79.7,30.02,SSW,195,0.0,1.0,80,0.00,,,0.01,WUHU216DAVISVP2,2013-08-02 16:11:00,
2013-08-02 12:16:00,86.4,79.3,30.02,SE,134,0.0,1.0,79,0.00,,,0.01,WUHU216DAVISVP2,2013-08-02 16:16:00,
2013-08-02 12:21:00,86.4,79.6,30.03,NNE,22,1.0,1.0,80,0.00,,,0.01,WUHU216DAVISVP2,2013-08-02 16:21:00,
2013-08-02 12:26:00,86.2,79.8,30.02,ENE,77,0.0,2.0,81,0.00,,,0.01,WUHU216DAVISVP2,2013-08-02 16:26:00,
2013-08-02 12:31:00,86.0,79.6,30.02,ENE,66,0.0,2.0,81,0.00,,,0.01,WUHU216DAVISVP2,2013-08-02 16:31:00,
2013-08-02 12:36:00,86.1,80.4,30.02,ENE,60,1.0,1.0,83,0.00,,,0.01,WUHU216DAVISVP2,2013-08-02 16:36:00,
2013-08-02 12:41:00,86.1,79.7,30.02,ENE,67,0.0,2.0,81,0.00,,,0.01,WUHU216DAVISVP2,2013-08-02 16:41:00,
2013-08-02 12:46:00,85.9,79.5,30.02,East,101,0.0,3.0,81,0.00,,,0.01,WUHU216DAVISVP2,2013-08-02 16:46:00,
2013-08-02 12:51:00,85.6,79.2,30.02,East,100,0.0,3.0,81,0.00,,,0.01,WUHU216DAVISVP2,2013-08-02 16:51:00,
2013-08-02 12:56:00,85.5,79.5,30.02,East,87,0.0,1.0,82,0.00,,,0.01,WUHU216DAVISVP2,2013-08-02 16:56:00,
2013-08-02 13:01:00,85.8,79.4,30.02,ESE,111,0.0,1.0,81,0.00,,,0.01,WUHU216DAVISVP2,2013-08-02 17:01:00,
2013-08-02 13:06:00,85.8,79.0,30.02,East,82,0.0,1.0,80,0.00,,,0.01,WUHU216DAVISVP2,2013-08-02 17:06:00,
2013-08-02 13:11:00,85.6,79.2,30.02,East,88,2.0,2.0,81,0.00,,,0.01,WUHU216DAVISVP2,2013-08-02 17:11:00,
2013-08-02 13:16:00,85.1,78.7,30.02,ENE,67,0.0,3.0,81,0.00,,,0.01,WUHU216DAVISVP2,2013-08-02 17:16:00,
2013-08-02 13:21:00,84.8,78.8,30.02,East,84,0.0,3.0,82,0.00,,,0.01,WUHU216DAVISVP2,2013-08-02 17:21:00,
2013-08-02 13:26:00,84.7,79.1,30.02,East,80,0.0,2.0,83,0.00,,,0.01,WUHU216DAVISVP2,2013-08-02 17:26:00,
2013-08-02 13:31:00,84.8,78.8,30.02,North,360,0.0,3.0,82,0.00,,,0.01,WUHU216DAVISVP2,2013-08-02 17:31:00,
2013-08-02 13:36:00,85.1,79.4,30.02,North,5,0.0,3.0,83,0.00,,,0.01,WUHU216DAVISVP2,2013-08-02 17:36:00,
2013-08-02 13:41:00,85.6,79.6,30.02,ENE,74,2.0,3.0,82,0.00,,,0.01,WUHU216DAVISVP2,2013-08-02 17:41:00,
2013-08-02 13:46:00,85.5,78.8,30.02,ESE,104,2.0,3.0,80,0.00,,,0.01,WUHU216DAVISVP2,2013-08-02 17:46:00,
2013-08-02 13:51:00,85.1,78.7,30.02,East,87,2.0,3.0,81,0.00,,,0.01,WUHU216DAVISVP2,2013-08-02 17:51:00,
2013-08-02 13:56:00,85.0,78.6,30.02,ENE,69,1.0,3.0,81,0.00,,,0.01,WUHU216DAVISVP2,2013-08-02 17:56:00,
2013-08-02 14:01:00,85.0,79.0,30.02,ESE,122,0.0,2.0,82,0.00,,,0.01,WUHU216DAVISVP2,2013-08-02 18:01:00,
2013-08-02 14:06:00,85.0,78.6,30.02,ENE,57,0.0,4.0,81,0.00,,,0.01,WUHU216DAVISVP2,2013-08-02 18:06:00,
2013-08-02 14:11:00,84.9,78.2,30.01,ENE,74,1.0,4.0,80,0.00,,,0.01,WUHU216DAVISVP2,2013-08-02 18:11:00,
2013-08-02 14:16:00,85.0,77.9,30.01,ESE,105,0.0,3.0,79,0.00,,,0.01,WUHU216DAVISVP2,2013-08-02 18:16:00,
2013-08-02 14:21:00,85.0,77.9,30.02,East,96,0.0,3.0,79,0.00,,,0.01,WUHU216DAVISVP2,2013-08-02 18:21:00,
2013-08-02 14:26:00,85.1,77.6,30.02,ESE,116,0.0,3.0,78,0.00,,,0.01,WUHU216DAVISVP2,2013-08-02 18:26:00,
2013-08-02 14:31:00,85.2,78.1,30.02,East,93,1.0,3.0,79,0.00,,,0.01,WUHU216DAVISVP2,2013-08-02 18:31:00,
2013-08-02 14:36:00,85.2,77.7,30.01,ENE,71,0.0,4.0,78,0.00,,,0.01,WUHU216DAVISVP2,2013-08-02 18:36:00,
2013-08-02 14:41:00,85.5,78.4,30.01,ESE,115,0.0,4.0,79,0.00,,,0.01,WUHU216DAVISVP2,2013-08-02 18:41:00,
2013-08-02 14:46:00,85.9,78.4,30.01,SSW,196,0.0,2.0,78,0.00,,,0.01,WUHU216DAVISVP2,2013-08-02 18:46:00,
2013-08-02 14:51:00,86.5,77.8,30.00,NE,39,1.0,2.0,75,0.00,,,0.01,WUHU216DAVISVP2,2013-08-02 18:51:00,
2013-08-02 14:56:00,86.7,77.2,30.01,ENE,58,0.0,2.0,73,0.00,,,0.01,WUHU216DAVISVP2,2013-08-02 18:56:00,
2013-08-02 15:01:00,86.8,77.7,30.00,NNW,338,0.0,3.0,74,0.00,,,0.01,WUHU216DAVISVP2,2013-08-02 19:01:00,
2013-08-02 15:06:00,87.0,77.1,30.00,NNE,22,0.0,3.0,72,0.00,,,0.01,WUHU216DAVISVP2,2013-08-02 19:06:00,
2013-08-02 15:11:00,86.9,77.0,30.00,NNE,19,0.0,3.0,72,0.00,,,0.01,WUHU216DAVISVP2,2013-08-02 19:11:00,
2013-08-02 15:16:00,86.9,77.4,30.00,SW,223,0.0,3.0,73,0.00,,,0.01,WUHU216DAVISVP2,2013-08-02 19:16:00,
2013-08-02 15:21:00,87.0,77.5,30.00,SSE,147,0.0,2.0,73,0.00,,,0.01,WUHU216DAVISVP2,2013-08-02 19:21:00,
2013-08-02 15:26:00,87.3,77.4,30.00,NE,39,0.0,2.0,72,0.00,,,0.01,WUHU216DAVISVP2,2013-08-02 19:26:00,
2013-08-02 15:31:00,86.9,76.6,30.00,SE,130,0.0,3.0,71,0.00,,,0.01,WUHU216DAVISVP2,2013-08-02 19:31:00,
2013-08-02 15:36:00,86.4,76.5,29.99,East,90,0.0,3.0,72,0.00,,,0.01,WUHU216DAVISVP2,2013-08-02 19:36:00,
2013-08-02 15:41:00,86.6,78.3,29.99,East,83,1.0,3.0,76,0.00,,,0.01,WUHU216DAVISVP2,2013-08-02 19:41:00,
2013-08-02 15:46:00,86.3,77.3,29.99,ENE,67,0.0,4.0,74,0.00,,,0.01,WUHU216DAVISVP2,2013-08-02 19:46:00,
2013-08-02 15:51:00,85.9,77.3,29.99,ENE,57,0.0,4.0,75,0.00,,,0.01,WUHU216DAVISVP2,2013-08-02 19:51:00,
2013-08-02 15:56:00,85.7,77.5,29.99,East,87,2.0,3.0,76,0.00,,,0.01,WUHU216DAVISVP2,2013-08-02 19:56:00,
2013-08-02 16:01:00,85.5,78.0,30.00,ENE,75,0.0,3.0,78,0.00,,,0.01,WUHU216DAVISVP2,2013-08-02 20:01:00,
2013-08-02 16:06:00,85.9,78.0,30.00,WNW,288,0.0,3.0,77,0.00,,,0.01,WUHU216DAVISVP2,2013-08-02 20:06:00,
2013-08-02 16:11:00,85.8,77.5,29.99,East,82,2.0,4.0,76,0.00,,,0.01,WUHU216DAVISVP2,2013-08-02 20:11:00,
2013-08-02 16:16:00,85.7,78.2,29.99,NE,46,0.0,6.0,78,0.00,,,0.01,WUHU216DAVISVP2,2013-08-02 20:16:00,
2013-08-02 16:21:00,86.0,78.9,29.99,North,349,0.0,6.0,79,0.00,,,0.01,WUHU216DAVISVP2,2013-08-02 20:21:00,
2013-08-02 16:26:00,86.5,79.4,29.99,NNE,13,0.0,2.0,79,0.00,,,0.01,WUHU216DAVISVP2,2013-08-02 20:26:00,
2013-08-02 16:31:00,86.5,79.0,29.99,ENE,73,1.0,3.0,78,0.00,,,0.01,WUHU216DAVISVP2,2013-08-02 20:31:00,
2013-08-02 16:36:00,86.4,79.3,29.99,ENE,74,0.0,3.0,79,0.00,,,0.01,WUHU216DAVISVP2,2013-08-02 20:36:00,
2013-08-02 16:41:00,86.4,79.3,29.99,NW,304,0.0,2.0,79,0.00,,,0.01,WUHU216DAVISVP2,2013-08-02 20:41:00,
2013-08-02 16:46:00,86.4,78.9,29.99,NNW,346,0.0,2.0,78,0.00,,,0.01,WUHU216DAVISVP2,2013-08-02 20:46:00,
2013-08-02 16:51:00,85.8,78.7,29.99,ESE,102,0.0,5.0,79,0.00,,,0.01,WUHU216DAVISVP2,2013-08-02 20:51:00,
2013-08-02 16:56:00,85.5,78.8,29.99,East,81,0.0,5.0,80,0.00,,,0.01,WUHU216DAVISVP2,2013-08-02 20:56:00,
2013-08-02 17:01:00,84.9,78.5,29.99,ENE,68,0.0,2.0,81,0.00,,,0.01,WUHU216DAVISVP2,2013-08-02 21:01:00,
2013-08-02 17:06:00,84.4,78.4,29.99,NE,42,0.0,2.0,82,0.00,,,0.01,WUHU216DAVISVP2,2013-08-02 21:06:00,
2013-08-02 17:11:00,83.9,78.3,29.99,ENE,57,0.0,2.0,83,0.00,,,0.01,WUHU216DAVISVP2,2013-08-02 21:11:00,
2013-08-02 17:16:00,83.7,78.4,29.99,East,86,0.0,3.0,84,0.00,,,0.01,WUHU216DAVISVP2,2013-08-02 21:16:00,
2013-08-02 17:21:00,83.6,78.7,29.99,South,175,0.0,3.0,85,0.00,,,0.01,WUHU216DAVISVP2,2013-08-02 21:21:00,
2013-08-02 17:26:00,83.7,78.4,29.99,ENE,73,0.0,3.0,84,0.00,,,0.01,WUHU216DAVISVP2,2013-08-02 21:26:00,
2013-08-02 17:32:00,83.4,78.1,29.98,NNE,17,0.0,3.0,84,0.00,,,0.01,WUHU216DAVISVP2,2013-08-02 21:32:00,
2013-08-02 17:37:00,83.3,78.4,29.99,ESE,103,0.0,2.0,85,0.00,,,0.01,WUHU216DAVISVP2,2013-08-02 21:37:00,
2013-08-02 17:42:00,83.0,78.1,29.99,ENE,70,0.0,2.0,85,0.00,,,0.01,WUHU216DAVISVP2,2013-08-02 21:42:00,
2013-08-02 17:47:00,82.9,78.3,29.99,SSW,195,0.0,2.0,86,0.00,,,0.01,WUHU216DAVISVP2,2013-08-02 21:47:00,
2013-08-02 17:52:00,82.9,78.3,29.98,East,83,0.0,1.0,86,0.00,,,0.01,WUHU216DAVISVP2,2013-08-02 21:52:00,
2013-08-02 17:57:00,83.0,78.4,29.99,SE,126,0.0,1.0,86,0.00,,,0.01,WUHU216DAVISVP2,2013-08-02 21:57:00,
2013-08-02 18:02:00,83.2,78.6,29.98,ENE,59,0.0,2.0,86,0.00,,,0.01,WUHU216DAVISVP2,2013-08-02 22:02:00,
2013-08-02 18:07:00,83.2,78.6,29.98,SSE,154,0.0,2.0,86,0.00,,,0.01,WUHU216DAVISVP2,2013-08-02 22:07:00,
2013-08-02 18:12:00,83.3,79.1,29.98,SSE,149,0.0,1.0,87,0.00,,,0.01,WUHU216DAVISVP2,2013-08-02 22:12:00,
2013-08-02 18:17:00,83.3,78.7,29.98,NNE,31,0.0,1.0,86,0.00,,,0.01,WUHU216DAVISVP2,2013-08-02 22:17:00,
2013-08-02 18:22:00,83.4,78.8,29.99,ENE,76,0.0,1.0,86,0.00,,,0.01,WUHU216DAVISVP2,2013-08-02 22:22:00,
2013-08-02 18:27:00,83.4,79.2,29.99,SE,140,0.0,3.0,87,0.00,,,0.01,WUHU216DAVISVP2,2013-08-02 22:27:00,
2013-08-02 18:32:00,83.3,78.7,29.99,ENE,57,0.0,3.0,86,0.00,,,0.01,WUHU216DAVISVP2,2013-08-02 22:32:00,
2013-08-02 18:37:00,83.2,79.0,29.99,SSW,194,1.0,3.0,87,0.00,,,0.01,WUHU216DAVISVP2,2013-08-02 22:37:00,
2013-08-02 18:42:00,83.0,78.8,29.98,SE,132,0.0,3.0,87,0.00,,,0.01,WUHU216DAVISVP2,2013-08-02 22:42:00,
2013-08-02 18:47:00,83.0,78.8,29.98,East,85,0.0,3.0,87,0.00,,,0.01,WUHU216DAVISVP2,2013-08-02 22:47:00,
2013-08-02 18:52:00,82.9,78.7,29.99,North,349,0.0,2.0,87,0.00,,,0.01,WUHU216DAVISVP2,2013-08-02 22:52:00,
2013-08-02 18:57:00,82.9,79.0,29.99,ENE,67,0.0,2.0,88,0.00,,,0.01,WUHU216DAVISVP2,2013-08-02 22:57:00,
2013-08-02 19:02:00,82.8,78.6,29.98,ESE,107,0.0,2.0,87,0.00,,,0.01,WUHU216DAVISVP2,2013-08-02 23:02:00,
2013-08-02 19:07:00,82.7,78.5,29.98,East,92,0.0,2.0,87,0.00,,,0.01,WUHU216DAVISVP2,2013-08-02 23:07:00,
2013-08-02 19:12:00,82.5,78.3,29.98,East,93,0.0,1.0,87,0.00,,,0.01,WUHU216DAVISVP2,2013-08-02 23:12:00,
2013-08-02 19:17:00,82.5,78.3,29.99,East,93,0.0,1.0,87,0.00,,,0.01,WUHU216DAVISVP2,2013-08-02 23:17:00,
2013-08-02 19:22:00,82.4,77.8,29.99,East,93,0.0,1.0,86,0.00,,,0.01,WUHU216DAVISVP2,2013-08-02 23:22:00,
2013-08-02 19:27:00,82.3,77.7,29.99,East,92,0.0,1.0,86,0.00,,,0.01,WUHU216DAVISVP2,2013-08-02 23:27:00,
2013-08-02 19:32:00,82.2,78.0,29.99,East,93,0.0,1.0,87,0.00,,,0.01,WUHU216DAVISVP2,2013-08-02 23:32:00,
2013-08-02 19:37:00,82.2,78.0,29.99,East,93,0.0,1.0,87,0.00,,,0.01,WUHU216DAVISVP2,2013-08-02 23:37:00,
2013-08-02 19:42:00,82.1,77.9,29.99,East,93,0.0,1.0,87,0.00,,,0.01,WUHU216DAVISVP2,2013-08-02 23:42:00,
2013-08-02 19:47:00,82.1,77.9,29.99,East,98,0.0,1.0,87,0.00,,,0.01,WUHU216DAVISVP2,2013-08-02 23:47:00,
2013-08-02 19:52:00,82.0,77.8,29.99,East,98,0.0,1.0,87,0.00,,,0.01,WUHU216DAVISVP2,2013-08-02 23:52:00,
2013-08-02 19:57:00,81.9,78.0,29.99,East,98,0.0,1.0,88,0.00,,,0.01,WUHU216DAVISVP2,2013-08-02 23:57:00,
2013-08-02 20:02:00,81.8,77.9,29.99,East,98,0.0,0.0,88,0.00,,,0.01,WUHU216DAVISVP2,2013-08-03 00:02:00,
2013-08-02 20:07:00,81.7,77.8,29.99,East,98,0.0,0.0,88,0.00,,,0.01,WUHU216DAVISVP2,2013-08-03 00:07:00,
2013-08-02 20:12:00,81.5,77.6,29.99,East,98,0.0,0.0,88,0.00,,,0.01,WUHU216DAVISVP2,2013-08-03 00:12:00,
2013-08-02 20:17:00,81.4,77.5,30.00,East,98,0.0,0.0,88,0.00,,,0.01,WUHU216DAVISVP2,2013-08-03 00:17:00,
2013-08-02 20:22:00,81.3,77.4,30.01,East,98,0.0,0.0,88,0.00,,,0.01,WUHU216DAVISVP2,2013-08-03 00:22:00,
2013-08-02 20:27:00,81.2,77.3,30.01,East,98,0.0,0.0,88,0.00,,,0.01,WUHU216DAVISVP2,2013-08-03 00:27:00,
2013-08-02 20:32:00,81.1,77.2,30.00,East,98,0.0,0.0,88,0.00,,,0.01,WUHU216DAVISVP2,2013-08-03 00:32:00,
2013-08-02 20:37:00,81.1,77.6,30.01,East,98,0.0,0.0,89,0.00,,,0.01,WUHU216DAVISVP2,2013-08-03 00:37:00,
2013-08-02 20:42:00,81.0,77.5,30.01,East,98,0.0,0.0,89,0.00,,,0.01,WUHU216DAVISVP2,2013-08-03 00:42:00,
2013-08-02 20:47:00,81.0,77.5,30.01,East,98,0.0,0.0,89,0.00,,,0.01,WUHU216DAVISVP2,2013-08-03 00:47:00,
2013-08-02 20:52:00,80.9,77.4,30.01,East,98,0.0,0.0,89,0.00,,,0.01,WUHU216DAVISVP2,2013-08-03 00:52:00,
2013-08-02 20:57:00,80.8,77.3,30.02,East,98,0.0,0.0,89,0.00,,,0.01,WUHU216DAVISVP2,2013-08-03 00:57:00,
2013-08-02 21:02:00,80.7,77.2,30.02,East,98,0.0,0.0,89,0.00,,,0.01,WUHU216DAVISVP2,2013-08-03 01:02:00,
2013-08-02 21:07:00,80.6,77.4,30.01,East,98,0.0,0.0,90,0.00,,,0.01,WUHU216DAVISVP2,2013-08-03 01:07:00,
2013-08-02 21:12:00,80.5,77.3,30.01,East,98,0.0,0.0,90,0.00,,,0.01,WUHU216DAVISVP2,2013-08-03 01:12:00,
2013-08-02 21:17:00,80.5,77.3,30.02,East,98,0.0,0.0,90,0.00,,,0.01,WUHU216DAVISVP2,2013-08-03 01:17:00,
2013-08-02 21:22:00,80.4,77.2,30.02,East,98,0.0,0.0,90,0.00,,,0.01,WUHU216DAVISVP2,2013-08-03 01:22:00,
2013-08-02 21:27:00,80.4,77.2,30.02,East,98,0.0,0.0,90,0.00,,,0.01,WUHU216DAVISVP2,2013-08-03 01:27:00,
2013-08-02 21:32:00,80.4,77.2,30.02,East,98,0.0,0.0,90,0.00,,,0.01,WUHU216DAVISVP2,2013-08-03 01:32:00,
2013-08-02 21:37:00,80.3,77.1,30.02,East,98,0.0,0.0,90,0.00,,,0.01,WUHU216DAVISVP2,2013-08-03 01:37:00,
2013-08-02 21:42:00,80.3,77.1,30.02,East,98,0.0,0.0,90,0.00,,,0.01,WUHU216DAVISVP2,2013-08-03 01:42:00,
2013-08-02 21:47:00,80.2,77.3,30.02,East,98,0.0,0.0,91,0.00,,,0.01,WUHU216DAVISVP2,2013-08-03 01:47:00,
2013-08-02 21:52:00,80.2,77.3,30.02,East,98,0.0,0.0,91,0.00,,,0.01,WUHU216DAVISVP2,2013-08-03 01:52:00,
2013-08-02 21:57:00,80.1,77.2,30.03,East,98,0.0,0.0,91,0.00,,,0.01,WUHU216DAVISVP2,2013-08-03 01:57:00,
2013-08-02 22:02:00,80.1,77.2,30.03,East,98,0.0,0.0,91,0.00,,,0.01,WUHU216DAVISVP2,2013-08-03 02:02:00,
2013-08-02 22:07:00,80.1,77.2,30.02,East,98,0.0,0.0,91,0.00,,,0.01,WUHU216DAVISVP2,2013-08-03 02:07:00,
2013-08-02 22:12:00,80.0,77.1,30.02,East,98,0.0,0.0,91,0.00,,,0.01,WUHU216DAVISVP2,2013-08-03 02:12:00,
2013-08-02 22:17:00,80.0,77.1,30.03,East,98,0.0,0.0,91,0.00,,,0.01,WUHU216DAVISVP2,2013-08-03 02:17:00,
2013-08-02 22:22:00,79.9,77.0,30.03,East,98,0.0,0.0,91,0.00,,,0.01,WUHU216DAVISVP2,2013-08-03 02:22:00,
2013-08-02 22:27:00,79.9,77.4,30.03,East,98,0.0,0.0,92,0.00,,,0.01,WUHU216DAVISVP2,2013-08-03 02:27:00,
2013-08-02 22:32:00,79.8,77.3,30.04,East,98,0.0,0.0,92,0.00,,,0.01,WUHU216DAVISVP2,2013-08-03 02:32:00,
2013-08-02 22:37:00,79.7,77.2,30.03,East,98,0.0,0.0,92,0.00,,,0.01,WUHU216DAVISVP2,2013-08-03 02:37:00,
2013-08-02 22:42:00,79.6,77.1,30.04,East,98,0.0,0.0,92,0.00,,,0.01,WUHU216DAVISVP2,2013-08-03 02:42:00,
2013-08-02 22:47:00,79.5,77.0,30.03,East,98,0.0,0.0,92,0.00,,,0.01,WUHU216DAVISVP2,2013-08-03 02:47:00,
2013-08-02 22:52:00,79.5,77.0,30.03,East,98,0.0,0.0,92,0.00,,,0.01,WUHU216DAVISVP2,2013-08-03 02:52:00,
2013-08-02 22:57:00,79.4,76.9,30.03,East,98,0.0,0.0,92,0.00,,,0.01,WUHU216DAVISVP2,2013-08-03 02:57:00,
2013-08-02 23:02:00,79.3,76.8,30.03,East,98,0.0,0.0,92,0.00,,,0.01,WUHU216DAVISVP2,2013-08-03 03:02:00,
2013-08-02 23:07:00,79.1,76.6,30.04,East,98,0.0,0.0,92,0.00,,,0.01,WUHU216DAVISVP2,2013-08-03 03:07:00,
2013-08-02 23:12:00,79.1,76.9,30.04,East,98,0.0,0.0,93,0.00,,,0.01,WUHU216DAVISVP2,2013-08-03 03:12:00,
2013-08-02 23:17:00,79.0,76.8,30.04,East,98,0.0,0.0,93,0.00,,,0.01,WUHU216DAVISVP2,2013-08-03 03:17:00,
2013-08-02 23:22:00,78.9,76.7,30.04,East,98,0.0,0.0,93,0.00,,,0.01,WUHU216DAVISVP2,2013-08-03 03:22:00,
2013-08-02 23:27:00,78.8,76.6,30.04,East,98,0.0,0.0,93,0.00,,,0.01,WUHU216DAVISVP2,2013-08-03 03:27:00,
2013-08-02 23:32:00,78.8,76.6,30.04,East,98,0.0,0.0,93,0.00,,,0.01,WUHU216DAVISVP2,2013-08-03 03:32:00,
2013-08-02 23:37:00,78.7,76.8,30.04,East,98,0.0,0.0,94,0.00,,,0.01,WUHU216DAVISVP2,2013-08-03 03:37:00,
2013-08-02 23:42:00,78.6,76.7,30.04,East,98,0.0,0.0,94,0.00,,,0.01,WUHU216DAVISVP2,2013-08-03 03:42:00,
2013-08-02 23:47:00,78.5,76.6,30.04,East,98,0.0,0.0,94,0.00,,,0.01,WUHU216DAVISVP2,2013-08-03 03:47:00,
2013-08-02 23:52:00,78.5,76.6,30.04,East,98,0.0,0.0,94,0.00,,,0.01,WUHU216DAVISVP2,2013-08-03 03:52:00,
2013-08-02 23:57:00,78.5,76.6,30.04,East,98,0.0,0.0,94,0.00,,,0.00,WUHU216DAVISVP2,2013-08-03 03:57:00,